Time;durP1;ratioP1;P1;durP2;ratioP2;P2;SDS_P1;SDS_P2;PMS_P1;PMS_P2;Temp;Humidity;BMP_temperature;BMP_pressure;BME280_temperature;BME280_humidity;BME280_pressure;Samples;Min_cycle;Max_cycle;Signal;HPM_P1;HPM_P2
2023/10/16 00:01:39;;;;;;;0.70;0.70;;;;;;;6.20;100.00;98053.59;4750721;30;20075;-82
2023/10/16 00:04:06;;;;;;;0.70;0.70;;;;;;;6.21;100.00;98068.59;4751068;30;20055;-81
2023/10/16 00:06:34;;;;;;;0.70;0.70;;;;;;;6.23;100.00;98076.41;4750943;30;20466;-82
2023/10/16 00:09:14;;;;;;;0.63;0.63;;;;;;;6.21;100.00;98075.84;4750840;30;20060;-81
2023/10/16 00:11:42;;;;;;;0.70;0.70;;;;;;;6.21;100.00;98070.47;4750931;30;20147;-82
2023/10/16 00:14:23;;;;;;;0.80;0.80;;;;;;;6.21;100.00;98067.78;4751282;30;20056;-81
2023/10/16 00:16:51;;;;;;;0.77;0.77;;;;;;;6.22;100.00;98062.19;4751025;30;20060;-81
2023/10/16 00:19:18;;;;;;;0.70;0.70;;;;;;;6.20;100.00;98048.25;4750702;30;20121;-81
2023/10/16 00:21:46;;;;;;;0.70;0.70;;;;;;;6.19;100.00;98046.59;4751058;30;20155;-82
2023/10/16 00:24:13;;;;;;;0.70;0.70;;;;;;;6.17;100.00;98047.88;4749950;30;20578;-82
2023/10/16 00:26:48;;;;;;;0.70;0.70;;;;;;;6.13;100.00;98041.38;4750393;30;20056;-81
2023/10/16 00:29:17;;;;;;;0.70;0.70;;;;;;;6.13;100.00;98049.41;4750915;30;20063;-82
2023/10/16 00:31:51;;;;;;;0.80;0.80;;;;;;;6.13;100.00;98046.72;4749689;30;20219;-82
2023/10/16 00:34:22;;;;;;;0.70;0.70;;;;;;;6.10;100.00;98044.53;4750755;30;20147;-82
2023/10/16 00:36:54;;;;;;;0.70;0.70;;;;;;;6.07;100.00;98038.59;4751366;30;20052;-82
2023/10/16 00:39:25;;;;;;;0.80;0.80;;;;;;;6.08;100.00;98042.91;4749990;30;20428;-81
2023/10/16 00:41:53;;;;;;;0.80;0.80;;;;;;;6.05;100.00;98043.41;4750699;30;20076;-80
2023/10/16 00:44:22;;;;;;;0.80;0.80;;;;;;;6.16;100.00;98054.31;4734866;30;20074;-81
2023/10/16 00:46:52;;;;;;;0.70;0.70;;;;;;;6.12;100.00;98047.78;4750673;30;20109;-82
2023/10/16 00:49:23;;;;;;;0.80;0.80;;;;;;;6.10;100.00;98056.06;4753308;30;20066;-80
2023/10/16 00:51:50;;;;;;;0.70;0.70;;;;;;;6.04;100.00;98060.50;4753589;30;20060;-82
2023/10/16 00:54:28;;;;;;;0.70;0.70;;;;;;;6.03;100.00;98058.88;4754285;30;20524;-81
2023/10/16 00:56:58;;;;;;;0.70;0.70;;;;;;;6.03;100.00;98066.13;4750562;30;20090;-82
2023/10/16 00:59:28;;;;;;;0.70;0.70;;;;;;;6.04;100.00;98075.78;4750442;30;20060;-83
2023/10/16 01:02:06;;;;;;;0.70;0.70;;;;;;;6.02;100.00;98065.28;4750750;30;20147;-82
2023/10/16 01:04:50;;;;;;;0.70;0.70;;;;;;;6.04;100.00;98075.78;4749412;30;20145;-82
2023/10/16 01:07:19;;;;;;;0.80;0.80;;;;;;;5.99;100.00;98078.34;4749535;30;20439;-81
2023/10/16 01:09:52;;;;;;;0.70;0.70;;;;;;;5.98;100.00;98066.00;4763955;30;20048;-83
2023/10/16 01:12:22;;;;;;;0.70;0.70;;;;;;;5.98;100.00;98066.81;4749139;30;20067;-82
2023/10/16 01:14:49;;;;;;;0.80;0.80;;;;;;;5.97;100.00;98067.03;4750749;30;20062;-82
2023/10/16 01:17:29;;;;;;;0.80;0.80;;;;;;;5.98;100.00;98061.47;4764411;30;20143;-82
2023/10/16 01:19:57;;;;;;;0.80;0.80;;;;;;;5.98;100.00;98069.50;4750620;30;20092;-82
2023/10/16 01:22:29;;;;;;;0.80;0.80;;;;;;;6.00;100.00;98067.41;4763882;30;20160;-81
2023/10/16 01:24:59;;;;;;;0.80;0.80;;;;;;;6.03;100.00;98066.13;4750714;30;20067;-81
2023/10/16 01:27:30;;;;;;;0.70;0.70;;;;;;;6.02;100.00;98062.59;4749997;30;20139;-81
2023/10/16 01:30:01;;;;;;;0.80;0.80;;;;;;;6.02;100.00;98064.47;4750085;30;20064;-82
2023/10/16 01:32:33;;;;;;;0.70;0.70;;;;;;;6.02;100.00;98069.84;4763105;30;20059;-82
2023/10/16 01:35:01;;;;;;;0.70;0.70;;;;;;;6.04;100.00;98071.22;4764165;30;20139;-84
2023/10/16 01:37:32;;;;;;;0.80;0.80;;;;;;;6.07;100.00;98068.06;4766778;30;20045;-81
2023/10/16 01:40:16;;;;;;;0.80;0.80;;;;;;;6.03;100.00;98066.13;4753556;30;20052;-81
2023/10/16 01:42:45;;;;;;;0.70;0.70;;;;;;;6.01;100.00;98058.31;4766765;30;20057;-80
2023/10/16 01:45:15;;;;;;;0.70;0.70;;;;;;;5.95;100.00;98050.41;4752313;30;20083;-83
2023/10/16 01:47:42;;;;;;;0.70;0.70;;;;;;;5.96;100.00;98049.38;4753267;30;20048;-82
2023/10/16 01:50:20;;;;;;;0.73;0.73;;;;;;;5.95;100.00;98043.19;4753394;30;20151;-81
2023/10/16 01:52:49;;;;;;;0.80;0.80;;;;;;;5.95;100.00;98053.91;4753557;30;20055;-81
2023/10/16 01:55:19;;;;;;;0.70;0.70;;;;;;;5.93;100.00;98053.31;4753591;30;20068;-81
2023/10/16 01:57:47;;;;;;;0.80;0.80;;;;;;;5.96;100.00;98055.53;4753448;30;20059;-82
2023/10/16 02:00:24;;;;;;;0.70;0.70;;;;;;;5.93;100.00;98037.22;4752605;30;20055;-81
2023/10/16 02:02:52;;;;;;;0.70;0.70;;;;;;;5.91;100.00;98036.66;4766934;30;20055;-82
2023/10/16 02:05:19;;;;;;;0.80;0.80;;;;;;;5.96;100.00;98044.00;4753298;30;20350;-81
2023/10/16 02:07:47;;;;;;;0.80;0.80;;;;;;;5.95;100.00;98045.88;4753173;30;20056;-82
2023/10/16 02:10:15;;;;;;;0.80;0.80;;;;;;;5.94;100.00;98048.78;4753020;30;20069;-80
2023/10/16 02:12:42;;;;;;;0.77;0.77;;;;;;;5.94;100.00;98038.88;4752608;30;20052;-82
2023/10/16 02:15:10;;;;;;;0.80;0.80;;;;;;;5.92;100.00;98037.47;4752859;30;20142;-82
2023/10/16 02:17:39;;;;;;;0.70;0.70;;;;;;;5.94;100.00;98044.22;4752642;30;20056;-79
2023/10/16 02:20:11;;;;;;;0.80;0.80;;;;;;;5.90;100.00;98035.03;4737519;30;20230;-80
2023/10/16 02:22:41;;;;;;;0.70;0.70;;;;;;;5.93;100.00;98047.94;4752604;30;20060;-80
2023/10/16 02:25:11;;;;;;;0.70;0.70;;;;;;;5.94;100.00;98052.28;4751766;30;20506;-80
2023/10/16 02:27:41;;;;;;;0.70;0.70;;;;;;;5.94;100.00;98048.78;4751064;30;20060;-81
2023/10/16 02:32:59;;;;;;;0.80;0.80;;;;;;;5.90;100.00;98039.56;4752872;30;20078;-82
2023/10/16 02:35:27;;;;;;;0.75;0.75;;;;;;;5.86;100.00;98047.25;4751544;30;20139;-81
2023/10/16 02:37:57;;;;;;;0.70;0.70;;;;;;;5.84;100.00;98044.81;4752615;30;20444;-81
2023/10/16 02:40:25;;;;;;;0.80;0.80;;;;;;;5.85;100.00;98037.63;4752542;30;20060;-81
2023/10/16 02:42:56;;;;;;;0.70;0.70;;;;;;;5.88;100.00;98039.00;4752656;30;20055;-81
2023/10/16 02:45:25;;;;;;;0.80;0.80;;;;;;;5.86;100.00;98042.72;4752496;30;20052;-81
2023/10/16 02:47:53;;;;;;;0.80;0.80;;;;;;;5.82;100.00;98033.56;4750515;30;20426;-81
2023/10/16 02:50:20;;;;;;;0.80;0.80;;;;;;;5.88;100.00;98050.53;4752456;30;20091;-81
2023/10/16 02:52:48;;;;;;;0.80;0.80;;;;;;;5.88;100.00;98055.88;4752647;30;20401;-80
2023/10/16 02:55:15;;;;;;;0.80;0.80;;;;;;;5.90;100.00;98058.31;4752419;30;20125;-81
2023/10/16 02:57:42;;;;;;;0.80;0.80;;;;;;;5.89;100.00;98057.50;4752021;30;20147;-81
2023/10/16 03:00:35;;;;;;;0.70;0.70;;;;;;;5.87;100.00;98048.88;4765897;30;20047;-81
2023/10/16 03:03:05;;;;;;;0.80;0.80;;;;;;;5.85;100.00;98057.16;4752606;30;20091;-80
2023/10/16 03:05:33;;;;;;;0.70;0.70;;;;;;;5.83;100.00;98069.16;4765738;30;20102;-81
2023/10/16 03:08:00;;;;;;;0.80;0.80;;;;;;;5.86;100.00;98068.69;4752470;30;20059;-81
2023/10/16 03:10:30;;;;;;;0.70;0.70;;;;;;;5.84;100.00;98074.25;4752080;30;20064;-80
2023/10/16 03:13:05;;;;;;;0.80;0.80;;;;;;;5.79;100.00;98051.94;4752221;30;20056;-80
2023/10/16 03:15:45;;;;;;;0.80;0.80;;;;;;;5.78;100.00;98055.69;4751999;30;20059;-81
2023/10/16 03:18:17;;;;;;;0.70;0.70;;;;;;;5.80;100.00;98053.56;4752062;30;20406;-81
2023/10/16 03:20:45;;;;;;;0.70;0.70;;;;;;;5.81;100.00;98039.13;4751873;30;20499;-82
2023/10/16 03:23:14;;;;;;;0.80;0.80;;;;;;;5.83;100.00;98037.03;4752069;30;20060;-83
2023/10/16 03:28:09;;;;;;;0.80;0.80;;;;;;;5.83;100.00;98048.56;4751375;30;20068;-82
2023/10/16 03:30:39;;;;;;;0.70;0.70;;;;;;;5.84;100.00;98050.16;4751762;30;20147;-81
2023/10/16 03:33:07;;;;;;;0.80;0.80;;;;;;;5.86;100.00;98039.22;4750053;30;20060;-80
2023/10/16 03:35:50;;;;;;;0.80;0.80;;;;;;;5.85;100.00;98051.81;4750952;30;20056;-82
2023/10/16 03:38:34;;;;;;;0.70;0.70;;;;;;;5.86;100.00;98045.38;4751277;30;20071;-82
2023/10/16 03:41:03;;;;;;;0.80;0.80;;;;;;;5.85;100.00;98034.94;4751111;30;20423;-82
2023/10/16 03:43:30;;;;;;;0.73;0.73;;;;;;;5.83;100.00;98019.09;4750936;30;20662;-82
2023/10/16 03:45:58;;;;;;;0.68;0.68;;;;;;;5.86;100.00;98023.97;4751320;30;20132;-82
2023/10/16 03:48:25;;;;;;;0.80;0.80;;;;;;;5.85;100.00;98003.59;4751276;30;20125;-84
2023/10/16 03:50:56;;;;;;;0.80;0.80;;;;;;;5.80;100.00;98005.38;4750789;30;20147;-80
2023/10/16 03:53:24;;;;;;;0.77;0.77;;;;;;;5.78;100.00;98018.19;4750757;30;20063;-82
2023/10/16 03:55:51;;;;;;;0.70;0.70;;;;;;;5.75;100.00;98026.69;4750948;30;20060;-82
2023/10/16 03:58:18;;;;;;;0.70;0.70;;;;;;;5.77;100.00;98008.50;4750979;30;20052;-81
2023/10/16 04:00:56;;;;;;;0.80;0.80;;;;;;;5.78;100.00;98002.94;4753875;30;20055;-80
2023/10/16 04:03:26;;;;;;;0.80;0.80;;;;;;;5.80;100.00;98021.44;4741698;30;20550;-81
2023/10/16 04:05:54;;;;;;;0.80;0.80;;;;;;;5.79;100.00;98022.47;4743731;30;20459;-80
2023/10/16 04:08:21;;;;;;;0.80;0.80;;;;;;;5.78;100.00;98024.34;4736867;30;20048;-80
2023/10/16 04:10:49;;;;;;;0.70;0.70;;;;;;;5.81;100.00;98031.09;4742744;30;20084;-82
2023/10/16 04:13:18;;;;;;;0.80;0.80;;;;;;;5.78;100.00;98019.00;4747475;30;20086;-81
2023/10/16 04:18:33;;;;;;;0.80;0.80;;;;;;;5.72;100.00;98016.44;4742600;30;20052;-80
2023/10/16 04:31:45;;;;;;;0.80;0.80;;;;;;;5.65;100.00;98025.44;4739953;30;20087;-80
2023/10/16 04:34:24;;;;;;;0.80;0.80;;;;;;;5.69;100.00;98024.94;4739636;30;20075;-80
2023/10/16 04:43:08;;;;;;;0.80;0.80;;;;;;;5.77;100.00;98022.75;4740670;30;20060;-81
2023/10/16 04:45:39;;;;;;;0.80;0.80;;;;;;;5.79;100.00;98035.88;4725464;30;20151;-80
2023/10/16 04:48:07;;;;;;;0.80;0.80;;;;;;;5.81;100.00;98039.13;4747398;30;20067;-80
2023/10/16 05:01:17;;;;;;;0.70;0.70;;;;;;;5.85;100.00;98021.53;4747841;30;20151;-80
2023/10/16 05:04:14;;;;;;;0.80;0.80;;;;;;;5.82;100.00;98020.16;4747099;30;20060;-80
2023/10/16 05:17:21;;;;;;;0.90;0.90;;;;;;;5.89;100.00;98008.47;4733463;30;20080;-81
2023/10/16 05:19:53;;;;;;;0.80;0.80;;;;;;;5.84;100.00;98007.31;4734304;30;20067;-81
2023/10/16 06:15:07;;;;;;;0.73;0.73;;;;;;;5.87;100.00;98032.81;4747133;30;20060;-81
2023/10/16 06:17:37;;;;;;;0.82;0.82;;;;;;;5.82;100.00;98025.50;4750550;30;20191;-80
2023/10/16 06:20:09;;;;;;;0.80;0.80;;;;;;;5.78;100.00;98015.50;4750856;30;20052;-79
2023/10/16 06:22:36;;;;;;;0.73;0.73;;;;;;;5.76;100.00;98022.97;4749019;30;20091;-80
2023/10/16 06:25:09;;;;;;;0.80;0.80;;;;;;;5.77;100.00;98011.19;4752373;30;20123;-81
2023/10/16 06:27:41;;;;;;;0.85;0.85;;;;;;;5.76;100.00;98010.38;4751623;30;20063;-81
2023/10/16 06:30:18;;;;;;;0.80;0.80;;;;;;;5.78;100.00;98015.50;4750043;30;20062;-78
2023/10/16 06:32:49;;;;;;;0.80;0.80;;;;;;;5.77;100.00;98006.66;4745323;30;20088;-80
2023/10/16 06:35:16;;;;;;;0.70;0.70;;;;;;;5.78;100.00;98013.63;4743499;30;20059;-80
2023/10/16 06:37:51;;;;;;;0.77;0.77;;;;;;;5.82;100.00;98013.97;4741364;30;20048;-79
2023/10/16 06:40:24;;;;;;;0.80;0.80;;;;;;;5.82;100.00;98013.97;4742529;30;20143;-80
2023/10/16 06:43:11;;;;;;;0.80;0.80;;;;;;;5.77;100.00;98017.38;4734820;30;20060;-78
2023/10/16 06:46:09;;;;;;;0.80;0.80;;;;;;;5.79;100.00;98011.78;4746476;30;20158;-80
2023/10/16 06:48:37;;;;;;;0.70;0.70;;;;;;;5.80;100.00;98008.06;4734241;30;20525;-79
2023/10/16 06:51:15;;;;;;;0.80;0.80;;;;;;;5.77;100.00;98001.31;4734506;30;20169;-79
2023/10/16 06:53:45;;;;;;;0.90;0.90;;;;;;;5.78;100.00;97991.41;4734419;30;20068;-79
2023/10/16 06:56:27;;;;;;;0.80;0.80;;;;;;;5.78;100.00;97996.78;4734740;30;20083;-79
2023/10/16 06:58:56;;;;;;;0.80;0.80;;;;;;;5.80;100.00;97989.31;4734496;30;20053;-80
2023/10/16 07:01:25;;;;;;;0.80;0.80;;;;;;;5.80;100.00;97989.31;4747689;30;20056;-80
2023/10/16 07:03:57;;;;;;;0.80;0.80;;;;;;;5.78;100.00;97976.16;4747376;30;20156;-79
2023/10/16 07:06:32;;;;;;;0.80;0.80;;;;;;;5.77;100.00;97985.25;4734298;30;20110;-80
2023/10/16 07:09:06;;;;;;;0.80;0.80;;;;;;;5.75;100.00;97983.88;4734598;30;20057;-80
2023/10/16 07:11:33;;;;;;;0.70;0.70;;;;;;;5.74;100.00;97980.34;4734085;30;20052;-79
2023/10/16 07:14:00;;;;;;;0.75;0.75;;;;;;;5.64;100.00;97977.47;4734091;30;20180;-79
2023/10/16 07:16:28;;;;;;;0.80;0.80;;;;;;;5.65;100.00;97979.94;4734384;30;20063;-80
2023/10/16 07:18:57;;;;;;;0.73;0.73;;;;;;;5.62;100.00;97971.53;4747646;30;20048;-80
2023/10/16 07:21:25;;;;;;;0.80;0.80;;;;;;;5.62;100.00;97977.72;4732845;30;20092;-80
2023/10/16 07:23:55;;;;;;;0.77;0.77;;;;;;;5.61;100.00;97970.72;4734009;30;20437;-79
2023/10/16 07:26:24;;;;;;;0.80;0.80;;;;;;;5.58;100.00;97970.41;4734456;30;20060;-79
2023/10/16 07:28:52;;;;;;;0.80;0.80;;;;;;;5.57;100.00;97963.41;4733782;30;20475;-79
2023/10/16 07:31:19;;;;;;;0.80;0.80;;;;;;;5.62;100.00;97968.88;4733942;30;20055;-79
2023/10/16 07:33:59;;;;;;;0.80;0.80;;;;;;;5.62;100.00;97974.22;4733818;30;20486;-79
2023/10/16 07:36:27;;;;;;;0.90;0.90;;;;;;;5.61;100.00;97973.41;4734268;30;20075;-79
2023/10/16 07:38:54;;;;;;;0.80;0.80;;;;;;;5.62;100.00;97963.50;4732793;30;20061;-79
2023/10/16 07:41:23;;;;;;;0.80;0.80;;;;;;;5.59;100.00;97964.78;4747839;30;20513;-79
2023/10/16 07:43:57;;;;;;;0.80;0.80;;;;;;;5.60;100.00;97969.13;4741455;30;20356;-80
2023/10/16 07:46:30;;;;;;;0.80;0.80;;;;;;;5.57;100.00;97968.75;4733413;30;20257;-80
2023/10/16 07:49:03;;;;;;;0.80;0.80;;;;;;;5.53;100.00;97957.72;4750523;30;20056;-81
2023/10/16 07:51:30;;;;;;;0.80;0.80;;;;;;;5.50;100.00;97960.88;4750072;30;20064;-81
2023/10/16 07:53:59;;;;;;;0.80;0.80;;;;;;;5.50;100.00;97952.06;4741809;30;20840;-81
2023/10/16 07:56:32;;;;;;;0.80;0.80;;;;;;;5.55;100.00;97950.28;4742010;30;20114;-81
2023/10/16 07:59:08;;;;;;;0.80;0.80;;;;;;;5.53;100.00;97952.38;4732615;30;20053;-81
2023/10/16 08:01:57;;;;;;;0.80;0.80;;;;;;;5.55;100.00;97936.91;4732438;30;20052;-80
2023/10/16 08:09:57;;;;;;;0.80;0.80;;;;;;;5.41;100.00;97949.72;4743257;30;20056;-82
2023/10/16 08:12:47;;;;;;;0.80;0.80;;;;;;;5.46;100.00;97950.88;4742885;30;20067;-80
2023/10/16 08:15:15;;;;;;;0.70;0.70;;;;;;;5.40;100.00;97940.09;4743373;30;20414;-81
2023/10/16 08:17:51;;;;;;;0.82;0.82;;;;;;;5.34;100.00;97937.53;4744163;30;20053;-81
2023/10/16 08:20:19;;;;;;;0.80;0.80;;;;;;;5.26;100.00;97932.56;4739029;30;20197;-80
2023/10/16 08:22:48;;;;;;;0.77;0.77;;;;;;;5.16;100.00;97931.28;4743990;30;20067;-81
2023/10/16 08:25:31;;;;;;;0.80;0.80;;;;;;;5.05;100.00;97913.41;4737091;30;20586;-81
2023/10/16 08:28:18;;;;;;;0.80;0.80;;;;;;;4.98;100.00;97915.41;4738251;30;20056;-81
2023/10/16 08:33:16;;;;;;;0.80;0.80;;;;;;;5.00;100.00;97932.03;4736511;30;20048;-81
2023/10/16 08:35:45;;;;;;;0.80;0.80;;;;;;;5.04;100.00;97935.03;4742080;30;20080;-81
2023/10/16 08:38:25;;;;;;;0.80;0.80;;;;;;;5.08;100.00;97934.34;4732193;30;20060;-82
2023/10/16 08:41:07;;;;;;;0.85;0.85;;;;;;;5.14;100.00;97930.72;4731320;30;20077;-80
2023/10/16 08:46:44;;;;;;;0.70;0.70;;;;;;;5.01;100.00;97928.28;4739513;30;20093;-80
2023/10/16 08:49:12;;;;;;;0.90;0.90;;;;;;;4.95;100.00;97934.59;4743337;30;20068;-80
2023/10/16 08:51:40;;;;;;;0.80;0.80;;;;;;;4.95;100.00;97939.94;4746500;30;20147;-80
2023/10/16 08:54:35;;;;;;;0.80;0.80;;;;;;;4.93;100.00;97929.47;4732090;30;20459;-81
2023/10/16 08:57:07;;;;;;;0.80;0.80;;;;;;;4.92;100.00;97938.53;4748973;30;20056;-82
2023/10/16 08:59:42;;;;;;;0.90;0.90;;;;;;;4.92;100.00;97930.53;4749045;30;20052;-79
2023/10/16 09:02:14;;;;;;;0.80;0.80;;;;;;;4.91;100.00;97931.59;4731822;30;20460;-80
2023/10/16 09:04:41;;;;;;;0.80;0.80;;;;;;;4.86;100.00;97920.78;4744673;30;20617;-81
2023/10/16 09:07:12;;;;;;;0.80;0.80;;;;;;;4.89;100.00;97927.50;4735117;30;20056;-80
2023/10/16 09:09:41;;;;;;;0.90;0.90;;;;;;;4.82;100.00;97921.47;4747567;30;20379;-80
2023/10/16 09:12:11;;;;;;;0.90;0.90;;;;;;;4.78;100.00;97919.28;4745732;30;20152;-77
2023/10/16 09:14:40;;;;;;;0.90;0.90;;;;;;;4.78;100.00;97913.94;4746334;30;20110;-81
2023/10/16 09:17:08;;;;;;;0.80;0.80;;;;;;;4.71;100.00;97918.56;4749232;30;20055;-80
2023/10/16 09:19:45;;;;;;;0.80;0.80;;;;;;;4.72;100.00;97914.84;4752166;30;20621;-79
2023/10/16 09:22:30;;;;;;;0.90;0.90;;;;;;;4.71;100.00;97907.88;4736955;30;20056;-80
2023/10/16 09:24:58;;;;;;;0.90;0.90;;;;;;;4.82;100.00;97905.44;4749807;30;20420;-79
2023/10/16 09:27:36;;;;;;;0.90;0.90;;;;;;;4.92;100.00;97903.78;4747402;30;20060;-81
2023/10/16 09:30:14;;;;;;;0.80;0.80;;;;;;;4.94;100.00;97901.69;4748280;30;20056;-80
2023/10/16 09:32:42;;;;;;;0.80;0.80;;;;;;;4.92;100.00;97908.31;4745974;30;20118;-81
2023/10/16 09:35:14;;;;;;;0.80;0.80;;;;;;;4.84;100.00;97906.03;4761287;30;20063;-79
2023/10/16 09:37:47;;;;;;;0.80;0.80;;;;;;;4.82;100.00;97905.44;4747178;30;20084;-80
2023/10/16 09:40:37;;;;;;;0.70;0.70;;;;;;;4.88;100.00;97909.84;4768338;30;20148;-82
2023/10/16 09:43:23;;;;;;;0.80;0.80;;;;;;;4.83;100.00;97905.19;4743429;30;20071;-81
2023/10/16 09:46:21;;;;;;;0.70;0.70;;;;;;;4.87;100.00;97911.69;4743276;30;20056;-83
2023/10/16 09:48:39;;;;;;;0.80;0.80;;;;;;;4.87;100.00;97918.91;4747950;30;20062;-79
2023/10/16 09:51:09;;;;;;;0.80;0.80;;;;;;;4.82;100.00;97902.75;4758577;30;20068;-80
2023/10/16 09:53:36;;;;;;;0.80;0.80;;;;;;;4.77;100.00;97901.59;4741304;30;20056;-81
2023/10/16 09:56:06;;;;;;;0.82;0.82;;;;;;;4.76;100.00;97904.47;4742101;30;20114;-80
2023/10/16 09:58:34;;;;;;;0.73;0.73;;;;;;;4.77;100.00;97906.13;4726949;30;20124;-81
2023/10/16 10:01:09;;;;;;;0.80;0.80;;;;;;;4.78;100.00;97913.09;4748708;30;20062;-81
2023/10/16 10:03:38;;;;;;;0.80;0.80;;;;;;;4.76;100.00;97909.84;4745937;30;20084;-81
2023/10/16 10:06:12;;;;;;;0.90;0.90;;;;;;;4.77;100.00;97912.28;4744999;30;20534;-79
2023/10/16 10:12:14;;;;;;;0.80;0.80;;;;;;;4.86;100.00;97914.59;4749086;30;20048;-82
2023/10/16 10:15:01;;;;;;;0.80;0.80;;;;;;;4.83;100.00;97902.50;4739588;30;20068;-82
2023/10/16 10:17:33;;;;;;;0.80;0.80;;;;;;;4.83;100.00;97894.50;4747734;30;20533;-83
2023/10/16 10:20:09;;;;;;;0.80;0.80;;;;;;;4.88;100.00;97888.44;4744063;30;20159;-82
2023/10/16 10:22:38;;;;;;;0.80;0.80;;;;;;;4.91;100.00;97890.63;4744621;30;20063;-81
2023/10/16 10:25:22;;;;;;;0.80;0.80;;;;;;;4.89;100.00;97892.75;4734646;30;20151;-84
2023/10/16 10:27:54;;;;;;;0.90;0.90;;;;;;;4.81;100.00;97885.06;4735239;30;20079;-83
2023/10/16 10:30:45;;;;;;;0.90;0.90;;;;;;;4.69;100.00;97888.59;4761843;30;20078;-82
2023/10/16 10:33:34;;;;;;;0.80;0.80;;;;;;;4.65;100.00;97887.41;4750999;30;20480;-81
2023/10/16 10:36:28;;;;;;;0.80;0.80;;;;;;;4.71;100.00;97889.16;4745998;30;20060;-82
2023/10/16 10:42:03;;;;;;;0.80;0.80;;;;;;;4.77;100.00;97874.06;4747727;30;20071;-82
2023/10/16 10:44:41;;;;;;;0.80;0.80;;;;;;;4.85;100.00;97873.69;4743745;30;20125;-83
2023/10/16 10:47:30;;;;;;;0.80;0.80;;;;;;;4.83;100.00;97866.94;4744144;30;20056;-82
2023/10/16 10:50:00;;;;;;;0.80;0.80;;;;;;;4.81;100.00;97863.69;4743833;30;20072;-80
2023/10/16 10:52:32;;;;;;;0.90;0.90;;;;;;;4.75;100.00;97863.59;4747934;30;20052;-79
2023/10/16 10:55:14;;;;;;;0.88;0.88;;;;;;;4.73;100.00;97857.66;4748100;30;20062;-81
2023/10/16 10:57:47;;;;;;;0.80;0.80;;;;;;;4.83;100.00;97853.59;4743578;30;20070;-80
2023/10/16 11:05:31;;;;;;;0.80;0.80;;;;;;;5.00;100.00;97846.44;4711531;30;20065;-83
2023/10/16 11:08:25;;;;;;;0.90;0.90;;;;;;;5.06;100.00;97850.84;4703441;30;20095;-82
2023/10/16 11:10:47;;;;;;;0.90;0.90;;;;;;;5.03;100.00;97837.16;4712024;30;20057;-82
2023/10/16 11:13:18;;;;;;;0.80;0.80;;;;;;;5.10;100.00;97827.94;4706303;30;20053;-83
2023/10/16 11:15:52;;;;;;;0.80;0.80;;;;;;;5.09;100.00;97829.00;4701447;30;20104;-84
2023/10/16 11:18:26;;;;;;;0.80;0.80;;;;;;;5.10;100.00;97829.81;4722459;30;20127;-82
2023/10/16 11:21:04;;;;;;;0.90;0.90;;;;;;;5.14;100.00;97823.75;4727222;30;20053;-82
2023/10/16 11:23:40;;;;;;;0.82;0.82;;;;;;;5.22;100.00;97831.38;4699462;30;20111;-82
2023/10/16 11:26:13;;;;;;;0.90;0.90;;;;;;;5.27;100.00;97830.69;4699389;30;20473;-82
2023/10/16 11:28:48;;;;;;;0.82;0.82;;;;;;;5.24;100.00;97819.63;4718628;30;20069;-82
2023/10/16 11:31:19;;;;;;;0.80;0.80;;;;;;;5.22;100.00;97818.00;4739388;30;20142;-80
2023/10/16 11:34:24;;;;;;;0.80;0.80;;;;;;;5.18;100.00;97819.53;4749097;30;20129;-81
2023/10/16 11:36:57;;;;;;;0.80;0.80;;;;;;;5.17;100.00;97812.56;4742220;30;20067;-80
2023/10/16 11:39:26;;;;;;;0.80;0.80;;;;;;;5.16;100.00;97802.91;4745777;30;20098;-81
2023/10/16 11:41:54;;;;;;;0.80;0.80;;;;;;;5.18;100.00;97806.16;4732579;30;20121;-81
2023/10/16 11:44:25;;;;;;;0.80;0.80;;;;;;;5.16;100.00;97802.91;4735431;30;20063;-80
2023/10/16 11:46:53;;;;;;;0.80;0.80;;;;;;;5.13;100.00;97808.72;4745530;30;20055;-79
2023/10/16 11:49:22;;;;;;;0.82;0.82;;;;;;;5.11;100.00;97799.31;4732026;30;20053;-81
2023/10/16 11:51:52;;;;;;;0.85;0.85;;;;;;;5.09;100.00;97801.41;4740829;30;20095;-80
2023/10/16 11:54:25;;;;;;;0.80;0.80;;;;;;;5.07;100.00;97790.97;4742555;30;20570;-81
2023/10/16 11:56:59;;;;;;;0.80;0.80;;;;;;;5.08;100.00;97795.25;4738733;30;20061;-80
2023/10/16 11:59:28;;;;;;;0.70;0.70;;;;;;;5.08;100.00;97792.59;4741859;30;20069;-79
2023/10/16 12:02:00;;;;;;;0.70;0.70;;;;;;;5.15;100.00;97795.94;4749150;30;20055;-79
2023/10/16 12:04:31;;;;;;;0.70;0.70;;;;;;;5.19;100.00;97802.44;4750840;30;20126;-78
2023/10/16 12:07:04;;;;;;;0.80;0.80;;;;;;;5.11;100.00;97792.09;4735207;30;20068;-80
2023/10/16 12:09:37;;;;;;;0.70;0.70;;;;;;;5.10;100.00;97793.16;4759722;30;20060;-80
2023/10/16 12:12:07;;;;;;;0.80;0.80;;;;;;;5.11;100.00;97784.09;4750524;30;20052;-81
2023/10/16 12:14:42;;;;;;;0.70;0.70;;;;;;;5.13;100.00;97787.34;4752119;30;20048;-81
2023/10/16 12:17:12;;;;;;;0.80;0.80;;;;;;;5.14;100.00;97783.63;4749101;30;20059;-80
2023/10/16 12:19:41;;;;;;;0.80;0.80;;;;;;;5.13;100.00;97784.66;4747619;30;20060;-80
2023/10/16 12:22:15;;;;;;;0.80;0.80;;;;;;;5.08;100.00;97787.25;4748776;30;20105;-81
2023/10/16 12:24:43;;;;;;;0.90;0.90;;;;;;;5.07;100.00;97774.13;4748718;30;20084;-80
2023/10/16 12:27:15;;;;;;;0.70;0.70;;;;;;;5.09;100.00;97786.22;4743267;30;20068;-77
2023/10/16 12:29:46;;;;;;;0.82;0.82;;;;;;;5.13;100.00;97779.31;4739232;30;20076;-81
2023/10/16 12:32:13;;;;;;;0.90;0.90;;;;;;;5.16;100.00;97783.38;4740875;30;20625;-81
2023/10/16 12:34:42;;;;;;;0.80;0.80;;;;;;;5.19;100.00;97781.06;4739071;30;20060;-80
2023/10/16 12:37:11;;;;;;;0.90;0.90;;;;;;;5.24;100.00;97784.84;4741433;30;20110;-80
2023/10/16 12:39:52;;;;;;;0.80;0.80;;;;;;;5.26;100.00;97788.09;4738093;30;20116;-79
2023/10/16 12:42:29;;;;;;;0.80;0.80;;;;;;;5.30;100.00;97787.38;4738034;30;20500;-80
2023/10/16 12:44:58;;;;;;;0.80;0.80;;;;;;;5.32;100.00;97787.97;4711791;30;20139;-80
2023/10/16 12:47:30;;;;;;;0.80;0.80;;;;;;;5.31;100.00;97786.31;4739052;30;20059;-80
2023/10/16 12:50:11;;;;;;;0.80;0.80;;;;;;;5.30;100.00;97786.59;4739823;30;20060;-80
2023/10/16 12:52:42;;;;;;;0.80;0.80;;;;;;;5.27;100.00;97787.88;4727957;30;20060;-83
2023/10/16 12:55:10;;;;;;;0.80;0.80;;;;;;;5.29;100.00;97784.94;4745769;30;20151;-80
2023/10/16 12:57:44;;;;;;;0.70;0.70;;;;;;;5.27;100.00;97792.41;4749419;30;20086;-81
2023/10/16 13:00:18;;;;;;;0.80;0.80;;;;;;;5.22;100.00;97790.47;4733192;30;20053;-79
2023/10/16 13:02:50;;;;;;;0.80;0.80;;;;;;;5.19;100.00;97788.25;4723096;30;20517;-80
2023/10/16 13:05:25;;;;;;;0.90;0.90;;;;;;;5.16;100.00;97781.50;4746847;30;20157;-79
2023/10/16 13:07:53;;;;;;;0.90;0.90;;;;;;;5.20;100.00;97787.22;4748313;30;20195;-80
2023/10/16 13:10:28;;;;;;;0.80;0.80;;;;;;;5.20;100.00;97787.22;4749670;30;20056;-81
2023/10/16 13:12:57;;;;;;;0.70;0.70;;;;;;;5.19;100.00;97780.22;4748672;30;20202;-82
2023/10/16 13:15:29;;;;;;;0.80;0.80;;;;;;;5.22;100.00;97791.25;4747869;30;20052;-80
2023/10/16 13:18:01;;;;;;;0.80;0.80;;;;;;;5.22;100.00;97782.44;4746593;30;20052;-81
2023/10/16 13:20:29;;;;;;;0.80;0.80;;;;;;;5.21;100.00;97784.28;4748514;30;20044;-80
2023/10/16 13:23:00;;;;;;;0.90;0.90;;;;;;;5.19;100.00;97780.22;4749126;30;20512;-80
2023/10/16 13:25:35;;;;;;;0.80;0.80;;;;;;;5.17;100.00;97783.16;4747672;30;20147;-79
2023/10/16 13:28:14;;;;;;;0.80;0.80;;;;;;;5.19;100.00;97783.72;4745843;30;20117;-79
2023/10/16 13:30:44;;;;;;;0.80;0.80;;;;;;;5.21;100.00;97783.47;4746155;30;20055;-81
2023/10/16 13:33:12;;;;;;;0.90;0.90;;;;;;;5.19;100.00;97788.25;4752465;30;20397;-81
2023/10/16 13:35:40;;;;;;;0.80;0.80;;;;;;;5.21;100.00;97792.28;4753630;30;20231;-81
2023/10/16 13:38:09;;;;;;;0.80;0.80;;;;;;;5.21;100.00;97792.28;4751681;30;20470;-81
2023/10/16 13:40:38;;;;;;;0.80;0.80;;;;;;;5.22;100.00;97796.63;4761838;30;20056;-81
2023/10/16 13:43:10;;;;;;;0.80;0.80;;;;;;;5.21;100.00;97797.66;4752548;30;20079;-81
2023/10/16 13:45:39;;;;;;;0.90;0.90;;;;;;;5.19;100.00;97801.59;4750944;30;20113;-81
2023/10/16 13:48:09;;;;;;;0.90;0.90;;;;;;;5.16;100.00;97802.91;4748350;30;20468;-80
2023/10/16 13:50:40;;;;;;;0.80;0.80;;;;;;;5.12;100.00;97796.41;4734868;30;20069;-80
2023/10/16 13:53:10;;;;;;;0.88;0.88;;;;;;;5.11;100.00;97800.13;4735046;30;20060;-83
2023/10/16 13:55:39;;;;;;;0.90;0.90;;;;;;;5.06;100.00;97801.91;4746799;30;20478;-81
2023/10/16 13:58:07;;;;;;;0.80;0.80;;;;;;;5.05;100.00;97801.09;4751712;30;20060;-83
2023/10/16 14:00:37;;;;;;;0.70;0.70;;;;;;;5.03;100.00;97802.38;4748566;30;20184;-81